sensor_id;sensor_type;location;lat;lon;timestamp;P1;durP1;ratioP1;P2;durP2;ratioP2
31386;SDS011;69978;50.096;8.448;2024-02-16T00:00:00;2.97;;;0.65;;
31386;SDS011;69978;50.096;8.448;2024-02-16T00:02:26;4.70;;;0.95;;
31386;SDS011;69978;50.096;8.448;2024-02-16T00:04:52;3.22;;;0.90;;
31386;SDS011;69978;50.096;8.448;2024-02-16T00:07:18;3.67;;;0.70;;
31386;SDS011;69978;50.096;8.448;2024-02-16T00:09:44;2.38;;;0.60;;
31386;SDS011;69978;50.096;8.448;2024-02-16T00:12:09;2.88;;;0.82;;
31386;SDS011;69978;50.096;8.448;2024-02-16T00:14:36;4.20;;;0.90;;
31386;SDS011;69978;50.096;8.448;2024-02-16T00:17:01;3.65;;;0.90;;
31386;SDS011;69978;50.096;8.448;2024-02-16T00:19:28;5.80;;;0.80;;
31386;SDS011;69978;50.096;8.448;2024-02-16T00:21:53;2.70;;;0.82;;
31386;SDS011;69978;50.096;8.448;2024-02-16T00:24:20;9.68;;;0.80;;
31386;SDS011;69978;50.096;8.448;2024-02-16T00:26:46;5.18;;;1.15;;
31386;SDS011;69978;50.096;8.448;2024-02-16T00:29:12;3.83;;;0.80;;
31386;SDS011;69978;50.096;8.448;2024-02-16T00:31:37;4.60;;;0.85;;
31386;SDS011;69978;50.096;8.448;2024-02-16T00:34:03;2.47;;;0.80;;
31386;SDS011;69978;50.096;8.448;2024-02-16T00:36:29;4.55;;;0.70;;
31386;SDS011;69978;50.096;8.448;2024-02-16T00:38:55;5.55;;;0.93;;
31386;SDS011;69978;50.096;8.448;2024-02-16T00:41:22;2.50;;;0.80;;
31386;SDS011;69978;50.096;8.448;2024-02-16T00:43:48;2.97;;;0.80;;
31386;SDS011;69978;50.096;8.448;2024-02-16T00:46:14;5.85;;;1.33;;
31386;SDS011;69978;50.096;8.448;2024-02-16T00:48:40;3.95;;;0.88;;
31386;SDS011;69978;50.096;8.448;2024-02-16T00:51:05;3.38;;;0.70;;
31386;SDS011;69978;50.096;8.448;2024-02-16T00:53:31;5.63;;;0.93;;
31386;SDS011;69978;50.096;8.448;2024-02-16T00:55:57;5.32;;;1.08;;
31386;SDS011;69978;50.096;8.448;2024-02-16T00:58:22;5.28;;;0.90;;
31386;SDS011;69978;50.096;8.448;2024-02-16T01:00:48;4.60;;;0.82;;
31386;SDS011;69978;50.096;8.448;2024-02-16T01:03:14;8.93;;;1.30;;
31386;SDS011;69978;50.096;8.448;2024-02-16T01:05:39;6.13;;;1.00;;
31386;SDS011;69978;50.096;8.448;2024-02-16T01:08:07;3.55;;;0.93;;
31386;SDS011;69978;50.096;8.448;2024-02-16T01:10:33;3.45;;;1.30;;
31386;SDS011;69978;50.096;8.448;2024-02-16T01:12:59;3.45;;;0.90;;
31386;SDS011;69978;50.096;8.448;2024-02-16T01:15:24;6.78;;;1.55;;
31386;SDS011;69978;50.096;8.448;2024-02-16T01:17:50;4.63;;;1.00;;
31386;SDS011;69978;50.096;8.448;2024-02-16T01:20:15;3.05;;;0.85;;
31386;SDS011;69978;50.096;8.448;2024-02-16T01:22:41;5.80;;;0.88;;
31386;SDS011;69978;50.096;8.448;2024-02-16T01:25:07;5.25;;;1.00;;
31386;SDS011;69978;50.096;8.448;2024-02-16T01:27:33;3.33;;;1.20;;
31386;SDS011;69978;50.096;8.448;2024-02-16T01:30:00;7.13;;;1.50;;
31386;SDS011;69978;50.096;8.448;2024-02-16T01:32:26;4.38;;;1.10;;
31386;SDS011;69978;50.096;8.448;2024-02-16T01:34:52;3.13;;;0.82;;
31386;SDS011;69978;50.096;8.448;2024-02-16T01:37:17;5.22;;;1.20;;
31386;SDS011;69978;50.096;8.448;2024-02-16T01:39:43;6.30;;;1.25;;
31386;SDS011;69978;50.096;8.448;2024-02-16T01:42:09;5.72;;;1.30;;
31386;SDS011;69978;50.096;8.448;2024-02-16T01:44:36;3.65;;;0.90;;
31386;SDS011;69978;50.096;8.448;2024-02-16T01:47:03;3.85;;;1.23;;
31386;SDS011;69978;50.096;8.448;2024-02-16T01:49:29;4.63;;;1.50;;
31386;SDS011;69978;50.096;8.448;2024-02-16T01:51:55;6.70;;;1.45;;
31386;SDS011;69978;50.096;8.448;2024-02-16T01:54:21;7.30;;;1.40;;
31386;SDS011;69978;50.096;8.448;2024-02-16T01:56:47;4.93;;;1.48;;
31386;SDS011;69978;50.096;8.448;2024-02-16T01:59:14;9.30;;;1.52;;
31386;SDS011;69978;50.096;8.448;2024-02-16T02:01:39;7.45;;;1.40;;
31386;SDS011;69978;50.096;8.448;2024-02-16T02:04:05;5.38;;;1.30;;
31386;SDS011;69978;50.096;8.448;2024-02-16T02:06:31;6.95;;;1.35;;
31386;SDS011;69978;50.096;8.448;2024-02-16T02:08:59;7.05;;;1.35;;
31386;SDS011;69978;50.096;8.448;2024-02-16T02:11:25;7.00;;;1.52;;
31386;SDS011;69978;50.096;8.448;2024-02-16T02:13:50;4.05;;;1.40;;
31386;SDS011;69978;50.096;8.448;2024-02-16T02:16:16;5.05;;;1.20;;
31386;SDS011;69978;50.096;8.448;2024-02-16T02:18:44;7.88;;;1.48;;
31386;SDS011;69978;50.096;8.448;2024-02-16T02:21:09;4.88;;;1.17;;
31386;SDS011;69978;50.096;8.448;2024-02-16T02:23:35;5.40;;;1.08;;
31386;SDS011;69978;50.096;8.448;2024-02-16T02:26:01;4.55;;;1.20;;
31386;SDS011;69978;50.096;8.448;2024-02-16T02:28:26;4.50;;;1.38;;
31386;SDS011;69978;50.096;8.448;2024-02-16T02:30:52;4.97;;;1.30;;
31386;SDS011;69978;50.096;8.448;2024-02-16T02:33:18;4.43;;;1.10;;
31386;SDS011;69978;50.096;8.448;2024-02-16T02:35:44;6.20;;;0.90;;
31386;SDS011;69978;50.096;8.448;2024-02-16T02:38:11;3.50;;;1.20;;
31386;SDS011;69978;50.096;8.448;2024-02-16T02:40:37;4.45;;;1.55;;
31386;SDS011;69978;50.096;8.448;2024-02-16T02:43:03;4.40;;;1.25;;
31386;SDS011;69978;50.096;8.448;2024-02-16T02:45:28;2.90;;;1.27;;
31386;SDS011;69978;50.096;8.448;2024-02-16T02:47:54;4.90;;;1.42;;
31386;SDS011;69978;50.096;8.448;2024-02-16T02:50:20;4.32;;;1.20;;
31386;SDS011;69978;50.096;8.448;2024-02-16T02:52:45;5.68;;;1.40;;
31386;SDS011;69978;50.096;8.448;2024-02-16T02:55:11;6.00;;;1.60;;
31386;SDS011;69978;50.096;8.448;2024-02-16T02:57:36;4.82;;;1.40;;
31386;SDS011;69978;50.096;8.448;2024-02-16T03:00:06;4.75;;;1.55;;
31386;SDS011;69978;50.096;8.448;2024-02-16T03:02:35;5.05;;;1.85;;
31386;SDS011;69978;50.096;8.448;2024-02-16T03:05:05;7.13;;;1.50;;
31386;SDS011;69978;50.096;8.448;2024-02-16T03:07:32;6.03;;;1.63;;
31386;SDS011;69978;50.096;8.448;2024-02-16T03:09:58;9.07;;;1.70;;
31386;SDS011;69978;50.096;8.448;2024-02-16T03:12:24;4.63;;;1.35;;
31386;SDS011;69978;50.096;8.448;2024-02-16T03:14:49;5.40;;;1.75;;
31386;SDS011;69978;50.096;8.448;2024-02-16T03:17:15;6.30;;;1.60;;
31386;SDS011;69978;50.096;8.448;2024-02-16T03:19:41;7.03;;;1.77;;
31386;SDS011;69978;50.096;8.448;2024-02-16T03:22:07;6.68;;;2.08;;
31386;SDS011;69978;50.096;8.448;2024-02-16T03:24:32;7.70;;;2.20;;
31386;SDS011;69978;50.096;8.448;2024-02-16T03:26:58;6.50;;;1.73;;
31386;SDS011;69978;50.096;8.448;2024-02-16T03:29:25;7.55;;;2.10;;
31386;SDS011;69978;50.096;8.448;2024-02-16T03:31:51;8.07;;;1.98;;
31386;SDS011;69978;50.096;8.448;2024-02-16T03:34:17;9.77;;;2.22;;
31386;SDS011;69978;50.096;8.448;2024-02-16T03:36:42;8.73;;;2.22;;
31386;SDS011;69978;50.096;8.448;2024-02-16T03:39:08;9.43;;;2.13;;
31386;SDS011;69978;50.096;8.448;2024-02-16T03:41:33;6.53;;;2.10;;
31386;SDS011;69978;50.096;8.448;2024-02-16T03:43:59;5.80;;;2.08;;
31386;SDS011;69978;50.096;8.448;2024-02-16T03:46:25;6.25;;;2.33;;
31386;SDS011;69978;50.096;8.448;2024-02-16T03:48:51;8.85;;;2.50;;
31386;SDS011;69978;50.096;8.448;2024-02-16T03:51:17;11.25;;;2.80;;
31386;SDS011;69978;50.096;8.448;2024-02-16T03:53:43;6.63;;;2.17;;
31386;SDS011;69978;50.096;8.448;2024-02-16T03:56:11;7.22;;;2.00;;
31386;SDS011;69978;50.096;8.448;2024-02-16T03:58:37;6.57;;;2.30;;
31386;SDS011;69978;50.096;8.448;2024-02-16T04:01:03;7.78;;;2.10;;
31386;SDS011;69978;50.096;8.448;2024-02-16T04:03:31;7.70;;;2.10;;
31386;SDS011;69978;50.096;8.448;2024-02-16T04:05:57;5.72;;;2.13;;
31386;SDS011;69978;50.096;8.448;2024-02-16T04:08:24;6.47;;;1.98;;
31386;SDS011;69978;50.096;8.448;2024-02-16T04:10:50;8.30;;;2.30;;
31386;SDS011;69978;50.096;8.448;2024-02-16T04:13:15;6.00;;;2.00;;
31386;SDS011;69978;50.096;8.448;2024-02-16T04:15:41;5.10;;;1.70;;
31386;SDS011;69978;50.096;8.448;2024-02-16T04:18:07;9.60;;;3.35;;
31386;SDS011;69978;50.096;8.448;2024-02-16T04:20:32;6.20;;;2.30;;
31386;SDS011;69978;50.096;8.448;2024-02-16T04:22:58;7.63;;;2.13;;
31386;SDS011;69978;50.096;8.448;2024-02-16T04:25:24;10.40;;;2.20;;
31386;SDS011;69978;50.096;8.448;2024-02-16T04:27:50;8.02;;;2.17;;
31386;SDS011;69978;50.096;8.448;2024-02-16T04:30:15;6.53;;;1.90;;
31386;SDS011;69978;50.096;8.448;2024-02-16T04:32:41;8.15;;;1.85;;
31386;SDS011;69978;50.096;8.448;2024-02-16T04:35:07;8.80;;;1.90;;
31386;SDS011;69978;50.096;8.448;2024-02-16T04:37:36;5.93;;;1.88;;
31386;SDS011;69978;50.096;8.448;2024-02-16T04:40:03;4.43;;;1.70;;
31386;SDS011;69978;50.096;8.448;2024-02-16T04:42:30;7.28;;;2.10;;
31386;SDS011;69978;50.096;8.448;2024-02-16T04:44:56;6.95;;;2.13;;
31386;SDS011;69978;50.096;8.448;2024-02-16T04:47:22;7.63;;;2.13;;
31386;SDS011;69978;50.096;8.448;2024-02-16T04:49:49;9.05;;;2.10;;
31386;SDS011;69978;50.096;8.448;2024-02-16T04:52:15;5.45;;;1.80;;
31386;SDS011;69978;50.096;8.448;2024-02-16T04:54:40;7.30;;;2.55;;
31386;SDS011;69978;50.096;8.448;2024-02-16T04:57:06;7.90;;;1.95;;
31386;SDS011;69978;50.096;8.448;2024-02-16T04:59:32;9.73;;;2.22;;
31386;SDS011;69978;50.096;8.448;2024-02-16T05:01:58;7.97;;;2.10;;
31386;SDS011;69978;50.096;8.448;2024-02-16T05:04:23;8.70;;;1.92;;
31386;SDS011;69978;50.096;8.448;2024-02-16T05:06:49;12.68;;;2.00;;
31386;SDS011;69978;50.096;8.448;2024-02-16T05:09:17;8.63;;;2.25;;
31386;SDS011;69978;50.096;8.448;2024-02-16T05:11:43;7.38;;;2.28;;
31386;SDS011;69978;50.096;8.448;2024-02-16T05:14:11;7.47;;;2.42;;
31386;SDS011;69978;50.096;8.448;2024-02-16T05:16:37;10.10;;;2.45;;
31386;SDS011;69978;50.096;8.448;2024-02-16T05:19:07;5.03;;;1.92;;
31386;SDS011;69978;50.096;8.448;2024-02-16T05:21:32;10.10;;;2.22;;
31386;SDS011;69978;50.096;8.448;2024-02-16T05:23:59;12.45;;;2.67;;
31386;SDS011;69978;50.096;8.448;2024-02-16T05:26:24;10.13;;;2.60;;
31386;SDS011;69978;50.096;8.448;2024-02-16T05:28:50;5.65;;;2.22;;
31386;SDS011;69978;50.096;8.448;2024-02-16T05:31:16;9.70;;;2.30;;
31386;SDS011;69978;50.096;8.448;2024-02-16T05:33:43;6.10;;;2.40;;
31386;SDS011;69978;50.096;8.448;2024-02-16T05:36:11;8.57;;;2.17;;
31386;SDS011;69978;50.096;8.448;2024-02-16T05:38:40;13.95;;;2.60;;
31386;SDS011;69978;50.096;8.448;2024-02-16T05:41:06;6.70;;;2.00;;
31386;SDS011;69978;50.096;8.448;2024-02-16T05:43:33;5.32;;;2.17;;
31386;SDS011;69978;50.096;8.448;2024-02-16T05:45:58;9.40;;;2.33;;
31386;SDS011;69978;50.096;8.448;2024-02-16T05:48:24;9.45;;;2.00;;
31386;SDS011;69978;50.096;8.448;2024-02-16T05:50:52;7.88;;;2.50;;
31386;SDS011;69978;50.096;8.448;2024-02-16T05:53:17;8.50;;;2.40;;
31386;SDS011;69978;50.096;8.448;2024-02-16T05:55:44;7.85;;;2.33;;
31386;SDS011;69978;50.096;8.448;2024-02-16T05:58:10;7.90;;;2.72;;
31386;SDS011;69978;50.096;8.448;2024-02-16T06:00:36;9.40;;;2.70;;
31386;SDS011;69978;50.096;8.448;2024-02-16T06:03:01;6.45;;;2.30;;
31386;SDS011;69978;50.096;8.448;2024-02-16T06:05:27;9.63;;;2.67;;
31386;SDS011;69978;50.096;8.448;2024-02-16T06:07:53;10.88;;;2.90;;
31386;SDS011;69978;50.096;8.448;2024-02-16T06:10:21;8.60;;;2.35;;
31386;SDS011;69978;50.096;8.448;2024-02-16T06:12:47;8.02;;;2.75;;
31386;SDS011;69978;50.096;8.448;2024-02-16T06:15:13;7.88;;;2.42;;
31386;SDS011;69978;50.096;8.448;2024-02-16T06:17:39;8.50;;;2.50;;
31386;SDS011;69978;50.096;8.448;2024-02-16T06:20:05;7.28;;;2.78;;
31386;SDS011;69978;50.096;8.448;2024-02-16T06:22:34;9.80;;;3.08;;
31386;SDS011;69978;50.096;8.448;2024-02-16T06:25:00;9.43;;;2.92;;
31386;SDS011;69978;50.096;8.448;2024-02-16T06:27:26;8.98;;;2.67;;
31386;SDS011;69978;50.096;8.448;2024-02-16T06:29:51;14.77;;;2.83;;
31386;SDS011;69978;50.096;8.448;2024-02-16T06:32:17;8.50;;;2.80;;
31386;SDS011;69978;50.096;8.448;2024-02-16T06:34:43;10.35;;;2.70;;
31386;SDS011;69978;50.096;8.448;2024-02-16T06:37:10;10.90;;;2.58;;
31386;SDS011;69978;50.096;8.448;2024-02-16T06:39:36;12.27;;;2.80;;
31386;SDS011;69978;50.096;8.448;2024-02-16T06:42:02;12.27;;;2.92;;
31386;SDS011;69978;50.096;8.448;2024-02-16T06:44:28;8.48;;;2.45;;
31386;SDS011;69978;50.096;8.448;2024-02-16T06:46:54;6.28;;;2.33;;
31386;SDS011;69978;50.096;8.448;2024-02-16T06:49:19;8.30;;;2.80;;
31386;SDS011;69978;50.096;8.448;2024-02-16T06:51:45;8.73;;;3.20;;
31386;SDS011;69978;50.096;8.448;2024-02-16T06:54:10;10.32;;;2.55;;
31386;SDS011;69978;50.096;8.448;2024-02-16T06:56:36;8.10;;;2.88;;
31386;SDS011;69978;50.096;8.448;2024-02-16T06:59:02;9.68;;;3.03;;
31386;SDS011;69978;50.096;8.448;2024-02-16T07:01:28;8.18;;;2.80;;
31386;SDS011;69978;50.096;8.448;2024-02-16T07:03:54;9.43;;;2.40;;
31386;SDS011;69978;50.096;8.448;2024-02-16T07:06:19;6.05;;;2.72;;
31386;SDS011;69978;50.096;8.448;2024-02-16T07:08:45;11.77;;;2.85;;
31386;SDS011;69978;50.096;8.448;2024-02-16T07:11:11;9.25;;;3.00;;
31386;SDS011;69978;50.096;8.448;2024-02-16T07:13:38;8.10;;;2.95;;
31386;SDS011;69978;50.096;8.448;2024-02-16T07:16:10;9.60;;;3.25;;
31386;SDS011;69978;50.096;8.448;2024-02-16T07:18:35;10.07;;;2.60;;
31386;SDS011;69978;50.096;8.448;2024-02-16T07:21:01;14.85;;;3.25;;
31386;SDS011;69978;50.096;8.448;2024-02-16T07:23:27;9.70;;;3.22;;
31386;SDS011;69978;50.096;8.448;2024-02-16T07:25:54;12.43;;;3.28;;
31386;SDS011;69978;50.096;8.448;2024-02-16T07:28:21;8.18;;;2.85;;
31386;SDS011;69978;50.096;8.448;2024-02-16T07:30:48;8.55;;;3.30;;
31386;SDS011;69978;50.096;8.448;2024-02-16T07:33:14;8.70;;;2.97;;
31386;SDS011;69978;50.096;8.448;2024-02-16T07:35:40;8.65;;;3.17;;
31386;SDS011;69978;50.096;8.448;2024-02-16T07:38:05;11.88;;;3.00;;
31386;SDS011;69978;50.096;8.448;2024-02-16T07:40:32;9.25;;;2.78;;
31386;SDS011;69978;50.096;8.448;2024-02-16T07:42:57;10.18;;;3.08;;
31386;SDS011;69978;50.096;8.448;2024-02-16T07:45:23;8.77;;;3.08;;
31386;SDS011;69978;50.096;8.448;2024-02-16T07:47:49;5.70;;;2.78;;
31386;SDS011;69978;50.096;8.448;2024-02-16T07:50:19;8.30;;;3.45;;
31386;SDS011;69978;50.096;8.448;2024-02-16T07:52:45;13.70;;;3.67;;
31386;SDS011;69978;50.096;8.448;2024-02-16T07:55:11;7.63;;;3.08;;
31386;SDS011;69978;50.096;8.448;2024-02-16T07:57:37;11.60;;;2.72;;
31386;SDS011;69978;50.096;8.448;2024-02-16T08:00:03;7.32;;;2.70;;
31386;SDS011;69978;50.096;8.448;2024-02-16T08:02:32;7.70;;;2.58;;
31386;SDS011;69978;50.096;8.448;2024-02-16T08:04:58;8.60;;;2.63;;
31386;SDS011;69978;50.096;8.448;2024-02-16T08:07:24;7.15;;;2.90;;
31386;SDS011;69978;50.096;8.448;2024-02-16T08:09:49;6.88;;;2.63;;
31386;SDS011;69978;50.096;8.448;2024-02-16T08:12:15;16.38;;;3.45;;
31386;SDS011;69978;50.096;8.448;2024-02-16T08:14:41;9.55;;;2.88;;
31386;SDS011;69978;50.096;8.448;2024-02-16T08:17:07;8.48;;;2.42;;
31386;SDS011;69978;50.096;8.448;2024-02-16T08:19:34;8.20;;;2.70;;
31386;SDS011;69978;50.096;8.448;2024-02-16T08:22:05;9.23;;;2.75;;
31386;SDS011;69978;50.096;8.448;2024-02-16T08:24:34;8.63;;;2.78;;
31386;SDS011;69978;50.096;8.448;2024-02-16T08:27:01;8.10;;;3.05;;
31386;SDS011;69978;50.096;8.448;2024-02-16T08:29:27;10.93;;;3.30;;
31386;SDS011;69978;50.096;8.448;2024-02-16T08:31:54;9.07;;;3.15;;
31386;SDS011;69978;50.096;8.448;2024-02-16T08:34:20;5.75;;;2.40;;
31386;SDS011;69978;50.096;8.448;2024-02-16T08:36:49;8.60;;;3.00;;
31386;SDS011;69978;50.096;8.448;2024-02-16T08:39:16;7.68;;;2.97;;
31386;SDS011;69978;50.096;8.448;2024-02-16T08:41:42;11.48;;;3.22;;
31386;SDS011;69978;50.096;8.448;2024-02-16T08:44:14;7.93;;;3.03;;
31386;SDS011;69978;50.096;8.448;2024-02-16T08:46:39;6.95;;;2.90;;
31386;SDS011;69978;50.096;8.448;2024-02-16T08:49:05;12.77;;;3.28;;
31386;SDS011;69978;50.096;8.448;2024-02-16T08:51:31;9.40;;;2.88;;
31386;SDS011;69978;50.096;8.448;2024-02-16T08:53:59;5.13;;;2.50;;
31386;SDS011;69978;50.096;8.448;2024-02-16T08:56:25;9.45;;;2.83;;
31386;SDS011;69978;50.096;8.448;2024-02-16T08:58:51;12.98;;;3.03;;
31386;SDS011;69978;50.096;8.448;2024-02-16T09:01:17;11.00;;;3.17;;
31386;SDS011;69978;50.096;8.448;2024-02-16T09:03:42;10.23;;;3.35;;
31386;SDS011;69978;50.096;8.448;2024-02-16T09:06:08;7.15;;;2.75;;
31386;SDS011;69978;50.096;8.448;2024-02-16T09:08:34;7.70;;;2.97;;
31386;SDS011;69978;50.096;8.448;2024-02-16T09:11:00;9.77;;;3.05;;
31386;SDS011;69978;50.096;8.448;2024-02-16T09:13:31;10.18;;;2.75;;
31386;SDS011;69978;50.096;8.448;2024-02-16T09:16:01;8.50;;;2.70;;
31386;SDS011;69978;50.096;8.448;2024-02-16T09:18:28;5.63;;;2.53;;
31386;SDS011;69978;50.096;8.448;2024-02-16T09:20:54;9.40;;;3.10;;
31386;SDS011;69978;50.096;8.448;2024-02-16T09:23:20;10.50;;;2.85;;
31386;SDS011;69978;50.096;8.448;2024-02-16T09:25:45;8.82;;;2.78;;
31386;SDS011;69978;50.096;8.448;2024-02-16T09:28:11;12.07;;;3.20;;
31386;SDS011;69978;50.096;8.448;2024-02-16T09:30:37;7.75;;;2.80;;
31386;SDS011;69978;50.096;8.448;2024-02-16T09:33:03;12.02;;;3.25;;
31386;SDS011;69978;50.096;8.448;2024-02-16T09:35:29;7.25;;;3.20;;
31386;SDS011;69978;50.096;8.448;2024-02-16T09:37:54;12.75;;;3.33;;
31386;SDS011;69978;50.096;8.448;2024-02-16T09:40:21;9.82;;;2.90;;
31386;SDS011;69978;50.096;8.448;2024-02-16T09:42:50;10.07;;;2.72;;
31386;SDS011;69978;50.096;8.448;2024-02-16T09:45:16;9.80;;;2.85;;
31386;SDS011;69978;50.096;8.448;2024-02-16T09:47:44;7.80;;;2.95;;
31386;SDS011;69978;50.096;8.448;2024-02-16T09:50:12;8.93;;;3.47;;
31386;SDS011;69978;50.096;8.448;2024-02-16T09:52:38;10.23;;;3.25;;
31386;SDS011;69978;50.096;8.448;2024-02-16T09:55:12;11.18;;;3.50;;
31386;SDS011;69978;50.096;8.448;2024-02-16T09:57:39;10.20;;;3.22;;
31386;SDS011;69978;50.096;8.448;2024-02-16T10:00:05;9.98;;;3.30;;
31386;SDS011;69978;50.096;8.448;2024-02-16T10:02:43;9.77;;;2.97;;
31386;SDS011;69978;50.096;8.448;2024-02-16T10:05:13;8.98;;;3.00;;
31386;SDS011;69978;50.096;8.448;2024-02-16T10:07:40;10.23;;;3.30;;
31386;SDS011;69978;50.096;8.448;2024-02-16T10:10:22;10.73;;;3.40;;
31386;SDS011;69978;50.096;8.448;2024-02-16T10:12:48;10.23;;;3.22;;
31386;SDS011;69978;50.096;8.448;2024-02-16T10:15:21;6.00;;;2.90;;
31386;SDS011;69978;50.096;8.448;2024-02-16T10:18:02;9.93;;;3.30;;
31386;SDS011;69978;50.096;8.448;2024-02-16T10:20:30;8.55;;;2.65;;
31386;SDS011;69978;50.096;8.448;2024-02-16T10:25:36;7.47;;;3.03;;
31386;SDS011;69978;50.096;8.448;2024-02-16T10:28:06;10.35;;;3.55;;
31386;SDS011;69978;50.096;8.448;2024-02-16T10:30:36;10.32;;;3.08;;
31386;SDS011;69978;50.096;8.448;2024-02-16T10:33:06;7.43;;;3.42;;
31386;SDS011;69978;50.096;8.448;2024-02-16T10:35:33;7.85;;;2.60;;
31386;SDS011;69978;50.096;8.448;2024-02-16T10:38:03;10.65;;;2.95;;
31386;SDS011;69978;50.096;8.448;2024-02-16T10:40:34;9.85;;;2.80;;
31386;SDS011;69978;50.096;8.448;2024-02-16T10:43:07;12.05;;;2.97;;
31386;SDS011;69978;50.096;8.448;2024-02-16T10:45:34;7.43;;;2.78;;
31386;SDS011;69978;50.096;8.448;2024-02-16T10:48:01;9.98;;;2.80;;
31386;SDS011;69978;50.096;8.448;2024-02-16T10:50:28;9.75;;;2.90;;
31386;SDS011;69978;50.096;8.448;2024-02-16T10:52:54;7.95;;;2.70;;
31386;SDS011;69978;50.096;8.448;2024-02-16T10:55:23;7.20;;;2.90;;
31386;SDS011;69978;50.096;8.448;2024-02-16T10:57:49;8.02;;;2.60;;
31386;SDS011;69978;50.096;8.448;2024-02-16T11:00:15;6.28;;;2.97;;
31386;SDS011;69978;50.096;8.448;2024-02-16T11:02:58;9.05;;;3.00;;
31386;SDS011;69978;50.096;8.448;2024-02-16T11:05:36;8.13;;;2.55;;
31386;SDS011;69978;50.096;8.448;2024-02-16T11:08:14;11.85;;;2.28;;
31386;SDS011;69978;50.096;8.448;2024-02-16T11:10:41;5.32;;;2.47;;
31386;SDS011;69978;50.096;8.448;2024-02-16T11:13:21;5.47;;;2.45;;
31386;SDS011;69978;50.096;8.448;2024-02-16T11:15:57;5.45;;;2.45;;
31386;SDS011;69978;50.096;8.448;2024-02-16T11:18:25;6.32;;;2.17;;
31386;SDS011;69978;50.096;8.448;2024-02-16T11:20:53;5.38;;;2.30;;
31386;SDS011;69978;50.096;8.448;2024-02-16T11:23:24;8.95;;;2.70;;
31386;SDS011;69978;50.096;8.448;2024-02-16T11:26:00;10.15;;;2.70;;
31386;SDS011;69978;50.096;8.448;2024-02-16T11:28:27;6.60;;;2.45;;
31386;SDS011;69978;50.096;8.448;2024-02-16T11:30:54;10.73;;;2.70;;
31386;SDS011;69978;50.096;8.448;2024-02-16T11:33:19;9.00;;;2.65;;
31386;SDS011;69978;50.096;8.448;2024-02-16T11:35:58;10.38;;;2.80;;
31386;SDS011;69978;50.096;8.448;2024-02-16T11:38:33;7.50;;;2.75;;
31386;SDS011;69978;50.096;8.448;2024-02-16T11:41:00;7.05;;;2.50;;
31386;SDS011;69978;50.096;8.448;2024-02-16T11:43:35;8.65;;;1.80;;
31386;SDS011;69978;50.096;8.448;2024-02-16T11:46:11;6.70;;;2.08;;
31386;SDS011;69978;50.096;8.448;2024-02-16T11:48:38;8.77;;;2.42;;
31386;SDS011;69978;50.096;8.448;2024-02-16T11:51:04;6.97;;;2.35;;
31386;SDS011;69978;50.096;8.448;2024-02-16T11:53:30;7.10;;;2.10;;
31386;SDS011;69978;50.096;8.448;2024-02-16T11:55:56;8.25;;;2.20;;
31386;SDS011;69978;50.096;8.448;2024-02-16T11:58:22;5.53;;;2.13;;
31386;SDS011;69978;50.096;8.448;2024-02-16T12:00:49;5.55;;;2.33;;
31386;SDS011;69978;50.096;8.448;2024-02-16T12:03:19;13.05;;;2.47;;
31386;SDS011;69978;50.096;8.448;2024-02-16T12:05:49;5.07;;;2.00;;
31386;SDS011;69978;50.096;8.448;2024-02-16T12:08:16;4.88;;;2.47;;
31386;SDS011;69978;50.096;8.448;2024-02-16T12:10:42;6.00;;;1.85;;
31386;SDS011;69978;50.096;8.448;2024-02-16T12:13:08;5.68;;;2.13;;
31386;SDS011;69978;50.096;8.448;2024-02-16T12:15:38;7.57;;;2.30;;
31386;SDS011;69978;50.096;8.448;2024-02-16T12:18:09;6.32;;;1.95;;
31386;SDS011;69978;50.096;8.448;2024-02-16T12:20:35;6.38;;;1.90;;
31386;SDS011;69978;50.096;8.448;2024-02-16T12:23:10;6.15;;;2.10;;
31386;SDS011;69978;50.096;8.448;2024-02-16T12:25:39;4.57;;;1.95;;
31386;SDS011;69978;50.096;8.448;2024-02-16T12:28:04;4.95;;;2.30;;
31386;SDS011;69978;50.096;8.448;2024-02-16T12:30:33;7.00;;;2.15;;
31386;SDS011;69978;50.096;8.448;2024-02-16T12:33:21;8.38;;;2.10;;
31386;SDS011;69978;50.096;8.448;2024-02-16T12:35:50;4.68;;;2.10;;
31386;SDS011;69978;50.096;8.448;2024-02-16T12:38:22;6.40;;;1.98;;
31386;SDS011;69978;50.096;8.448;2024-02-16T12:40:48;8.07;;;2.15;;
31386;SDS011;69978;50.096;8.448;2024-02-16T12:43:14;4.00;;;1.63;;
31386;SDS011;69978;50.096;8.448;2024-02-16T12:45:44;7.68;;;1.58;;
31386;SDS011;69978;50.096;8.448;2024-02-16T12:48:13;5.15;;;1.77;;
31386;SDS011;69978;50.096;8.448;2024-02-16T12:50:39;7.30;;;1.67;;
31386;SDS011;69978;50.096;8.448;2024-02-16T12:53:06;6.90;;;1.60;;
31386;SDS011;69978;50.096;8.448;2024-02-16T12:55:35;7.22;;;1.45;;
31386;SDS011;69978;50.096;8.448;2024-02-16T12:58:01;6.60;;;1.63;;
31386;SDS011;69978;50.096;8.448;2024-02-16T13:00:26;7.53;;;2.20;;
31386;SDS011;69978;50.096;8.448;2024-02-16T13:02:52;2.78;;;1.52;;
31386;SDS011;69978;50.096;8.448;2024-02-16T13:05:17;6.03;;;1.67;;
31386;SDS011;69978;50.096;8.448;2024-02-16T13:07:43;5.13;;;1.55;;
31386;SDS011;69978;50.096;8.448;2024-02-16T13:10:09;5.22;;;1.38;;
31386;SDS011;69978;50.096;8.448;2024-02-16T13:12:34;4.70;;;1.50;;
31386;SDS011;69978;50.096;8.448;2024-02-16T13:15:02;6.93;;;1.40;;
31386;SDS011;69978;50.096;8.448;2024-02-16T13:17:29;5.78;;;1.50;;
31386;SDS011;69978;50.096;8.448;2024-02-16T13:20:01;4.88;;;1.60;;
31386;SDS011;69978;50.096;8.448;2024-02-16T13:22:34;5.15;;;1.38;;
31386;SDS011;69978;50.096;8.448;2024-02-16T13:25:03;5.57;;;1.00;;
31386;SDS011;69978;50.096;8.448;2024-02-16T13:27:31;5.50;;;1.13;;
31386;SDS011;69978;50.096;8.448;2024-02-16T13:29:57;2.13;;;0.98;;
31386;SDS011;69978;50.096;8.448;2024-02-16T13:32:22;4.45;;;1.05;;
31386;SDS011;69978;50.096;8.448;2024-02-16T13:34:51;5.95;;;1.27;;
31386;SDS011;69978;50.096;8.448;2024-02-16T13:37:17;5.15;;;1.52;;
31386;SDS011;69978;50.096;8.448;2024-02-16T13:39:43;6.85;;;1.45;;
31386;SDS011;69978;50.096;8.448;2024-02-16T13:42:08;3.60;;;1.23;;
31386;SDS011;69978;50.096;8.448;2024-02-16T13:44:35;4.00;;;1.10;;
31386;SDS011;69978;50.096;8.448;2024-02-16T13:47:01;6.03;;;1.35;;
31386;SDS011;69978;50.096;8.448;2024-02-16T13:49:27;11.25;;;1.20;;
31386;SDS011;69978;50.096;8.448;2024-02-16T13:51:52;4.13;;;1.00;;
31386;SDS011;69978;50.096;8.448;2024-02-16T13:54:18;2.22;;;0.85;;
31386;SDS011;69978;50.096;8.448;2024-02-16T13:56:46;6.68;;;1.10;;
31386;SDS011;69978;50.096;8.448;2024-02-16T13:59:11;4.35;;;0.80;;
31386;SDS011;69978;50.096;8.448;2024-02-16T14:01:37;6.50;;;1.08;;
31386;SDS011;69978;50.096;8.448;2024-02-16T14:04:03;5.63;;;0.95;;
31386;SDS011;69978;50.096;8.448;2024-02-16T14:06:29;2.35;;;0.95;;
31386;SDS011;69978;50.096;8.448;2024-02-16T14:08:56;5.07;;;1.42;;
31386;SDS011;69978;50.096;8.448;2024-02-16T14:11:22;6.78;;;1.20;;
31386;SDS011;69978;50.096;8.448;2024-02-16T14:13:48;8.55;;;1.20;;
31386;SDS011;69978;50.096;8.448;2024-02-16T14:16:14;3.28;;;0.88;;
31386;SDS011;69978;50.096;8.448;2024-02-16T14:18:40;4.05;;;0.80;;
31386;SDS011;69978;50.096;8.448;2024-02-16T14:21:06;6.07;;;1.15;;
31386;SDS011;69978;50.096;8.448;2024-02-16T14:23:32;5.93;;;1.00;;
31386;SDS011;69978;50.096;8.448;2024-02-16T14:25:58;8.70;;;0.98;;
31386;SDS011;69978;50.096;8.448;2024-02-16T14:28:24;5.45;;;1.05;;
31386;SDS011;69978;50.096;8.448;2024-02-16T14:30:49;2.35;;;0.73;;
31386;SDS011;69978;50.096;8.448;2024-02-16T14:33:18;6.18;;;1.27;;
31386;SDS011;69978;50.096;8.448;2024-02-16T14:35:44;9.30;;;2.80;;
31386;SDS011;69978;50.096;8.448;2024-02-16T14:38:10;7.65;;;1.83;;
31386;SDS011;69978;50.096;8.448;2024-02-16T14:40:37;3.55;;;1.02;;
31386;SDS011;69978;50.096;8.448;2024-02-16T14:43:03;4.50;;;1.00;;
31386;SDS011;69978;50.096;8.448;2024-02-16T14:45:29;7.25;;;1.00;;